createdAt,value
2019-01-30T00:00:38.925Z,119.80
2019-01-30T00:03:10.425Z,107.00
2019-01-30T00:05:42.024Z,126.80
2019-01-30T00:08:13.489Z,117.60
2019-01-30T00:10:45.064Z,112.40
2019-01-30T00:13:16.522Z,141.20
2019-01-30T00:15:56.129Z,136.60
2019-01-30T00:18:20.791Z,120.20
2019-01-30T00:20:52.099Z,129.60
2019-01-30T00:23:23.538Z,132.00
2019-01-30T00:25:54.879Z,121.40
2019-01-30T00:28:26.310Z,126.40
2019-01-30T00:30:58.081Z,133.00
2019-01-30T00:33:29.623Z,139.40
2019-01-30T00:36:01.472Z,134.80
2019-01-30T00:38:32.814Z,134.80
2019-01-30T00:41:04.364Z,146.20
2019-01-30T00:43:35.764Z,132.20
2019-01-30T00:46:07.039Z,145.75
2019-01-30T00:48:38.463Z,143.50
2019-01-30T00:51:11.117Z,146.25
2019-01-30T00:53:42.816Z,144.75
2019-01-30T00:56:14.374Z,135.75
2019-01-30T00:58:45.560Z,149.00
2019-01-30T01:01:17.376Z,151.00
2019-01-30T01:03:48.677Z,148.00
2019-01-30T01:06:20.307Z,156.75
2019-01-30T01:08:51.843Z,144.50
2019-01-30T01:11:23.603Z,159.00
2019-01-30T01:13:54.970Z,162.25
2019-01-30T01:16:26.384Z,147.75
2019-01-30T01:18:57.565Z,170.25
2019-01-30T01:21:29.275Z,151.25
2019-01-30T01:24:00.627Z,161.75
2019-01-30T01:26:32.117Z,165.25
2019-01-30T01:29:03.913Z,149.00
2019-01-30T01:31:35.358Z,159.00
2019-01-30T01:34:07.077Z,157.50
2019-01-30T01:36:38.435Z,128.25
2019-01-30T01:39:11.184Z,161.75
2019-01-30T01:41:43.693Z,153.75
2019-01-30T01:44:15.521Z,146.50
2019-01-30T01:46:48.854Z,167.75
2019-01-30T01:49:20.759Z,176.75
2019-01-30T01:51:52.317Z,166.75
2019-01-30T01:54:23.838Z,178.00
2019-01-30T01:56:55.204Z,182.00
2019-01-30T01:59:26.610Z,187.50
2019-01-30T02:01:57.863Z,180.75
2019-01-30T02:04:29.381Z,180.00
2019-01-30T02:07:00.549Z,194.50
2019-01-30T02:09:32.750Z,174.50
2019-01-30T02:12:04.319Z,186.50
2019-01-30T02:14:36.062Z,206.25
2019-01-30T02:17:07.546Z,170.25
2019-01-30T02:19:39.343Z,197.75
2019-01-30T02:22:10.896Z,210.25
2019-01-30T02:24:42.428Z,215.25
2019-01-30T02:27:14.067Z,216.50
2019-01-30T02:29:45.973Z,230.00
2019-01-30T02:32:17.676Z,232.00
2019-01-30T02:34:49.539Z,255.50
2019-01-30T02:37:21.094Z,262.75
2019-01-30T02:39:52.971Z,277.50
2019-01-30T02:42:24.790Z,311.25
2019-01-30T02:44:56.250Z,319.25
2019-01-30T02:47:27.621Z,344.00
2019-01-30T02:49:59.149Z,351.75
2019-01-30T02:52:30.497Z,345.50
2019-01-30T02:55:02.166Z,353.25
2019-01-30T02:57:33.657Z,345.00
2019-01-30T03:00:06.577Z,325.75
2019-01-30T03:02:38.411Z,326.25
2019-01-30T03:05:11.729Z,334.75
2019-01-30T03:07:43.321Z,320.25
2019-01-30T03:10:17.558Z,286.25
2019-01-30T03:12:49.051Z,263.25
2019-01-30T03:15:20.770Z,251.00
2019-01-30T03:17:52.640Z,262.75
2019-01-30T03:20:25.690Z,268.75
2019-01-30T03:22:57.161Z,248.25
2019-01-30T03:25:29.864Z,238.75
2019-01-30T03:28:01.517Z,245.50
2019-01-30T03:30:33.761Z,238.50
2019-01-30T03:33:05.231Z,229.50
2019-01-30T03:35:36.777Z,244.00
2019-01-30T03:38:08.534Z,251.75
2019-01-30T03:40:40.874Z,255.50
2019-01-30T03:43:12.179Z,246.00
2019-01-30T03:45:44.209Z,272.00
2019-01-30T03:48:15.649Z,239.25
2019-01-30T03:50:47.391Z,250.50
2019-01-30T03:53:18.876Z,236.75
2019-01-30T03:55:50.213Z,259.75
2019-01-30T03:58:22.779Z,254.00
2019-01-30T04:00:54.333Z,287.75
2019-01-30T04:03:26.064Z,313.25
2019-01-30T04:05:57.887Z,311.00
2019-01-30T04:08:29.274Z,278.50
2019-01-30T04:11:01.004Z,294.00
2019-01-30T04:13:32.378Z,296.25
2019-01-30T04:16:04.003Z,296.50
2019-01-30T04:18:36.507Z,265.25
2019-01-30T04:21:08.269Z,257.00
2019-01-30T04:23:43.253Z,236.75
2019-01-30T04:26:14.778Z,252.25
2019-01-30T04:28:46.316Z,219.75
2019-01-30T04:31:17.662Z,224.25
2019-01-30T04:33:49.189Z,238.00
2019-01-30T04:36:20.715Z,237.50
2019-01-30T04:38:51.853Z,201.25
2019-01-30T04:41:23.255Z,160.75
2019-01-30T04:43:54.553Z,196.00
2019-01-30T04:46:25.786Z,193.00
2019-01-30T04:48:57.453Z,189.00
2019-01-30T04:51:28.851Z,150.00
2019-01-30T04:54:00.600Z,173.00
2019-01-30T04:56:31.963Z,159.25
2019-01-30T04:59:03.722Z,155.20
2019-01-30T05:01:35.528Z,151.80
2019-01-30T05:04:06.947Z,154.00
2019-01-30T05:06:38.335Z,147.00
2019-01-30T05:09:11.037Z,149.40
2019-01-30T05:11:42.447Z,146.00
2019-01-30T05:14:14.090Z,144.80
2019-01-30T05:16:45.444Z,139.40
2019-01-30T05:19:17.485Z,147.20
2019-01-30T05:21:48.926Z,135.00
2019-01-30T05:24:20.686Z,130.00
2019-01-30T05:26:52.170Z,135.40
2019-01-30T05:29:23.524Z,127.60
2019-01-30T05:32:01.367Z,124.40
2019-01-30T05:34:28.022Z,135.40
2019-01-30T05:36:59.220Z,109.60
2019-01-30T05:39:30.793Z,123.20
2019-01-30T05:42:02.096Z,117.00
2019-01-30T05:44:33.785Z,124.20
2019-01-30T05:47:05.117Z,128.40
2019-01-30T05:49:36.640Z,121.40
2019-01-30T05:52:08.244Z,113.60
2019-01-30T05:54:40.071Z,101.60
2019-01-30T05:57:11.668Z,100.40
2019-01-30T05:59:43.831Z,99.60
2019-01-30T06:02:15.893Z,88.60
2019-01-30T06:04:47.477Z,98.60
2019-01-30T06:07:18.693Z,95.60
2019-01-30T06:09:50.252Z,96.60
2019-01-30T06:12:21.955Z,99.40
2019-01-30T06:14:53.399Z,96.00
2019-01-30T06:17:24.724Z,95.20
2019-01-30T06:19:55.966Z,90.80
2019-01-30T06:22:27.555Z,88.00
2019-01-30T06:24:59.107Z,86.80
2019-01-30T06:27:30.923Z,93.00
2019-01-30T06:30:02.389Z,100.80
2019-01-30T06:32:33.857Z,103.00
2019-01-30T06:35:05.279Z,93.20
2019-01-30T06:37:36.908Z,89.80
2019-01-30T06:40:11.263Z,80.60
2019-01-30T06:42:43.109Z,94.60
2019-01-30T06:45:14.909Z,85.20
2019-01-30T06:47:46.210Z,88.20
2019-01-30T06:50:17.619Z,77.00
2019-01-30T06:52:48.834Z,77.60
2019-01-30T06:55:20.348Z,78.40
2019-01-30T06:57:52.114Z,78.60
2019-01-30T07:00:27.388Z,77.60
2019-01-30T07:02:59.594Z,82.00
2019-01-30T07:05:30.862Z,69.80
2019-01-30T07:08:02.442Z,73.40
2019-01-30T07:10:34.325Z,75.40
2019-01-30T07:13:05.959Z,79.00
2019-01-30T07:15:37.370Z,76.00
2019-01-30T07:18:10.134Z,76.40
2019-01-30T07:20:41.789Z,69.80
2019-01-30T07:23:12.978Z,78.20
2019-01-30T07:25:44.517Z,70.40
2019-01-30T07:28:15.697Z,72.80
2019-01-30T07:30:47.379Z,70.20
2019-01-30T07:33:18.780Z,67.80
2019-01-30T07:35:50.381Z,70.00
2019-01-30T07:38:21.847Z,75.00
2019-01-30T07:40:53.324Z,71.20
2019-01-30T07:43:25.042Z,75.80
2019-01-30T07:45:56.911Z,78.20
2019-01-30T07:48:29.010Z,74.20
2019-01-30T07:51:00.782Z,91.20
2019-01-30T07:53:32.294Z,71.40
2019-01-30T07:56:03.831Z,73.20
2019-01-30T07:58:35.416Z,72.80
2019-01-30T08:01:06.792Z,78.40
2019-01-30T08:03:39.061Z,88.80
2019-01-30T08:06:10.417Z,71.00
2019-01-30T08:08:41.981Z,67.60
2019-01-30T08:11:13.356Z,70.00
2019-01-30T08:13:45.074Z,68.20
2019-01-30T08:16:16.463Z,70.60
2019-01-30T08:18:47.857Z,71.40
2019-01-30T08:21:19.514Z,67.60
2019-01-30T08:23:53.375Z,70.80
2019-01-30T08:26:25.695Z,69.00
2019-01-30T08:28:57.819Z,68.00
2019-01-30T08:31:29.150Z,67.00
2019-01-30T08:34:00.896Z,68.60
2019-01-30T08:36:32.702Z,68.80
2019-01-30T08:39:06.340Z,70.20
2019-01-30T08:41:38.424Z,66.40
2019-01-30T08:44:09.900Z,69.60
2019-01-30T08:46:41.373Z,72.60
2019-01-30T08:49:13.038Z,73.20
2019-01-30T08:51:44.543Z,71.00
2019-01-30T08:54:16.072Z,67.80
2019-01-30T08:56:53.125Z,64.00
2019-01-30T08:59:22.048Z,77.60
2019-01-30T09:01:53.715Z,72.00
2019-01-30T09:04:25.115Z,72.20
2019-01-30T09:06:56.558Z,73.60
2019-01-30T09:09:27.986Z,76.80
2019-01-30T09:11:59.819Z,71.40
2019-01-30T09:14:31.298Z,73.00
2019-01-30T09:17:06.552Z,76.20
2019-01-30T09:19:36.033Z,72.60
2019-01-30T09:22:08.271Z,76.40
2019-01-30T09:24:39.584Z,75.40
2019-01-30T09:27:10.872Z,71.80
2019-01-30T09:29:42.712Z,72.00
2019-01-30T09:32:14.431Z,70.20
2019-01-30T09:34:45.635Z,69.80
2019-01-30T09:37:17.064Z,70.60
2019-01-30T09:39:48.728Z,67.80
2019-01-30T09:42:20.445Z,65.00
2019-01-30T09:44:52.013Z,70.00
2019-01-30T09:47:23.263Z,66.80
2019-01-30T09:49:54.936Z,61.40
2019-01-30T09:52:27.583Z,69.40
2019-01-30T09:54:59.031Z,64.00
2019-01-30T09:57:30.773Z,65.20
2019-01-30T10:00:02.401Z,58.60
2019-01-30T10:02:34.144Z,68.40
2019-01-30T10:05:07.222Z,61.40
2019-01-30T10:07:38.838Z,65.60
2019-01-30T10:10:13.843Z,63.40
2019-01-30T10:12:45.361Z,68.00
2019-01-30T10:15:18.831Z,65.40
2019-01-30T10:17:50.292Z,59.80
2019-01-30T10:20:24.092Z,60.80
2019-01-30T10:22:56.022Z,54.00
2019-01-30T10:25:27.818Z,61.20
2019-01-30T10:27:59.141Z,62.80
2019-01-30T10:30:33.233Z,59.60
2019-01-30T10:33:05.157Z,60.80
2019-01-30T10:35:37.220Z,60.00
2019-01-30T10:38:08.592Z,63.20
2019-01-30T10:40:40.199Z,64.80
2019-01-30T10:43:11.967Z,62.80
2019-01-30T10:45:43.473Z,61.80
2019-01-30T10:48:14.807Z,64.60
2019-01-30T10:50:46.286Z,57.00
2019-01-30T10:53:17.768Z,65.40
2019-01-30T10:55:49.322Z,64.00
2019-01-30T10:58:20.981Z,82.80
2019-01-30T11:00:53.484Z,83.80
2019-01-30T11:03:25.567Z,71.60
2019-01-30T11:05:57.466Z,70.20
2019-01-30T11:08:29.109Z,86.20
2019-01-30T11:11:07.594Z,77.20
2019-01-30T11:13:33.907Z,69.60
2019-01-30T11:16:05.498Z,70.00
2019-01-30T11:18:36.964Z,70.00
2019-01-30T11:21:08.296Z,70.00
2019-01-30T11:23:40.352Z,64.40
2019-01-30T11:26:11.987Z,65.80
2019-01-30T11:28:43.278Z,60.00
2019-01-30T11:31:14.818Z,66.00
2019-01-30T11:33:46.347Z,59.80
2019-01-30T11:36:18.491Z,66.60
2019-01-30T11:38:51.396Z,65.80
2019-01-30T11:41:22.953Z,67.20
2019-01-30T11:43:54.423Z,62.40
2019-01-30T11:46:26.098Z,64.40
2019-01-30T11:48:57.760Z,66.80
2019-01-30T11:51:29.421Z,64.40
2019-01-30T11:54:01.306Z,64.20
2019-01-30T11:56:32.782Z,63.00
2019-01-30T11:59:04.601Z,62.00
2019-01-30T12:01:36.237Z,65.60
2019-01-30T12:04:17.482Z,67.80
2019-01-30T12:06:41.662Z,69.20
2019-01-30T12:09:13.595Z,68.00
2019-01-30T12:11:45.331Z,70.60
2019-01-30T12:14:16.848Z,63.20
2019-01-30T12:16:48.612Z,64.80
2019-01-30T12:19:20.331Z,71.40
2019-01-30T12:21:51.872Z,71.00
2019-01-30T12:24:23.168Z,85.80
2019-01-30T12:26:54.521Z,128.40
2019-01-30T12:29:25.966Z,130.00
2019-01-30T12:31:57.434Z,162.00
2019-01-30T12:34:28.799Z,162.00
2019-01-30T12:36:59.987Z,143.80
2019-01-30T12:39:31.390Z,150.00
2019-01-30T12:42:02.648Z,150.40
2019-01-30T12:44:33.935Z,162.25
2019-01-30T12:47:06.265Z,166.00
2019-01-30T12:49:38.541Z,168.75
2019-01-30T12:52:09.978Z,142.60
2019-01-30T12:54:41.282Z,123.20
2019-01-30T12:57:12.724Z,125.40
2019-01-30T12:59:44.093Z,124.80
2019-01-30T13:02:15.370Z,128.40
2019-01-30T13:04:46.703Z,138.80
2019-01-30T13:07:18.110Z,134.20
2019-01-30T13:09:49.359Z,133.20
2019-01-30T13:12:20.847Z,135.00
2019-01-30T13:14:52.396Z,164.50
2019-01-30T13:17:24.219Z,185.00
2019-01-30T13:19:55.730Z,200.75
2019-01-30T13:22:27.011Z,181.50
2019-01-30T13:24:58.226Z,161.50
2019-01-30T13:27:29.353Z,166.00
2019-01-30T13:30:00.848Z,169.25
2019-01-30T13:32:32.509Z,153.80
2019-01-30T13:35:03.821Z,154.60
2019-01-30T13:37:35.059Z,160.50
2019-01-30T13:40:08.230Z,157.20
2019-01-30T13:42:39.825Z,143.60
2019-01-30T13:45:12.195Z,152.80
2019-01-30T13:47:43.888Z,148.00
2019-01-30T13:50:18.774Z,145.40
2019-01-30T13:52:50.011Z,159.60
2019-01-30T13:55:21.758Z,157.40
2019-01-30T13:57:53.446Z,172.50
2019-01-30T14:00:27.538Z,174.75
2019-01-30T14:02:59.091Z,203.75
2019-01-30T14:05:30.976Z,201.75
2019-01-30T14:08:02.424Z,182.00
2019-01-30T14:10:34.201Z,198.25
2019-01-30T14:13:05.897Z,203.25
2019-01-30T14:15:37.362Z,194.25
2019-01-30T14:18:09.387Z,186.00
2019-01-30T14:20:40.833Z,197.75
2019-01-30T14:23:12.752Z,197.50
2019-01-30T14:25:44.075Z,190.00
2019-01-30T14:28:15.836Z,181.00
2019-01-30T14:30:47.380Z,202.25
2019-01-30T14:33:18.973Z,203.75
2019-01-30T14:35:50.314Z,203.25
2019-01-30T14:38:22.273Z,210.00
2019-01-30T14:40:53.629Z,207.00
2019-01-30T14:43:25.087Z,191.50
2019-01-30T14:45:57.009Z,185.50
2019-01-30T14:48:28.437Z,186.50
2019-01-30T14:50:59.893Z,191.25
2019-01-30T14:53:31.188Z,188.50
2019-01-30T14:56:02.807Z,190.50
2019-01-30T14:58:34.048Z,192.00
2019-01-30T15:01:05.748Z,191.75
2019-01-30T15:03:37.051Z,202.75
2019-01-30T15:06:08.570Z,200.50
2019-01-30T15:08:40.290Z,198.00
2019-01-30T15:11:12.075Z,208.50
2019-01-30T15:13:43.761Z,241.50
2019-01-30T15:16:15.098Z,247.00
2019-01-30T15:18:46.501Z,224.25
2019-01-30T15:21:17.686Z,211.00
2019-01-30T15:23:49.299Z,245.00
2019-01-30T15:26:21.092Z,260.00
2019-01-30T15:28:52.629Z,236.75
2019-01-30T15:31:24.052Z,254.25
2019-01-30T15:33:55.561Z,231.00
2019-01-30T15:36:26.879Z,372.25
2019-01-30T15:38:58.790Z,371.60
2019-01-30T15:41:30.303Z,353.75
2019-01-30T15:44:02.126Z,280.75
2019-01-30T15:46:33.713Z,295.25
2019-01-30T15:49:06.382Z,298.50
2019-01-30T15:51:39.482Z,329.50
2019-01-30T15:54:11.023Z,295.75
2019-01-30T15:56:42.978Z,266.00
2019-01-30T15:59:14.812Z,284.50
2019-01-30T16:01:47.250Z,298.25
2019-01-30T16:04:20.991Z,293.75
2019-01-30T16:06:52.649Z,296.00
2019-01-30T16:09:24.141Z,291.00
2019-01-30T16:11:55.808Z,280.75
2019-01-30T16:14:27.645Z,299.25
2019-01-30T16:16:59.172Z,290.25
2019-01-30T16:19:30.747Z,290.25
2019-01-30T16:22:02.178Z,289.00
2019-01-30T16:24:34.826Z,297.50
2019-01-30T16:27:06.545Z,294.00
2019-01-30T16:29:38.030Z,275.50
2019-01-30T16:32:09.523Z,281.00
2019-01-30T16:34:41.463Z,284.25
2019-01-30T16:37:13.098Z,305.50
2019-01-30T16:39:44.881Z,286.00
2019-01-30T16:42:16.654Z,285.00
2019-01-30T16:44:47.978Z,279.00
2019-01-30T16:47:19.322Z,274.25
2019-01-30T16:49:50.652Z,277.50
2019-01-30T16:52:21.779Z,286.75
2019-01-30T16:54:53.125Z,270.25
2019-01-30T16:57:24.783Z,267.25
2019-01-30T16:59:56.547Z,293.75
2019-01-30T17:02:28.075Z,275.00
2019-01-30T17:04:59.387Z,276.75
2019-01-30T17:07:31.218Z,287.75
2019-01-30T17:10:02.615Z,281.25
2019-01-30T17:12:35.424Z,260.25
2019-01-30T17:15:08.709Z,270.50
2019-01-30T17:17:40.690Z,244.00
2019-01-30T17:20:16.215Z,241.25
2019-01-30T17:22:47.860Z,215.00
2019-01-30T17:25:19.451Z,215.75
2019-01-30T17:27:51.298Z,218.00
2019-01-30T17:30:31.914Z,198.00
2019-01-30T17:33:03.529Z,186.75
2019-01-30T17:35:35.193Z,186.25
2019-01-30T17:38:06.848Z,199.00
2019-01-30T17:40:39.144Z,187.50
2019-01-30T17:43:10.666Z,185.50
2019-01-30T17:45:42.600Z,190.75
2019-01-30T17:48:14.879Z,187.50
2019-01-30T17:50:46.575Z,164.75
2019-01-30T17:53:18.212Z,181.00
2019-01-30T17:55:49.703Z,183.75
2019-01-30T17:58:21.323Z,177.00
2019-01-30T18:01:05.014Z,181.00
2019-01-30T18:03:36.943Z,173.50
2019-01-30T18:06:08.592Z,178.75
2019-01-30T18:08:40.353Z,188.50
2019-01-30T18:11:11.888Z,199.00
2019-01-30T18:13:45.204Z,194.50
2019-01-30T18:16:16.791Z,187.00
2019-01-30T18:18:48.504Z,180.50
2019-01-30T18:21:19.970Z,197.75
2019-01-30T18:23:51.574Z,189.00
2019-01-30T18:26:23.226Z,198.75
2019-01-30T18:28:55.231Z,192.50
2019-01-30T18:31:27.100Z,183.00
2019-01-30T18:33:58.771Z,180.00
2019-01-30T18:36:40.382Z,200.00
2019-01-30T18:39:04.178Z,176.75
2019-01-30T18:41:37.450Z,171.25
2019-01-30T18:44:08.865Z,179.75
2019-01-30T18:46:41.635Z,171.00
2019-01-30T18:49:13.243Z,178.50
2019-01-30T18:51:44.965Z,179.25
2019-01-30T18:54:16.457Z,177.50
2019-01-30T18:56:48.266Z,172.00
2019-01-30T18:59:20.080Z,173.75
2019-01-30T19:01:51.476Z,185.25
2019-01-30T19:04:23.334Z,186.00
2019-01-30T19:06:54.806Z,182.00
2019-01-30T19:09:26.620Z,166.75
2019-01-30T19:11:57.928Z,189.50
2019-01-30T19:14:29.632Z,189.75
2019-01-30T19:17:01.205Z,198.75
2019-01-30T19:19:32.751Z,197.50
2019-01-30T19:22:04.526Z,195.75
2019-01-30T19:24:36.322Z,179.50
2019-01-30T19:27:07.681Z,198.25
2019-01-30T19:29:39.228Z,188.75
2019-01-30T19:32:11.124Z,206.50
2019-01-30T19:34:43.563Z,192.50
2019-01-30T19:37:14.819Z,199.75
2019-01-30T19:39:46.192Z,193.00
2019-01-30T19:42:17.783Z,182.00
2019-01-30T19:44:49.301Z,194.50
2019-01-30T19:47:20.843Z,194.00
2019-01-30T19:49:52.654Z,182.75
2019-01-30T19:52:24.454Z,193.50
2019-01-30T19:54:55.713Z,187.75
2019-01-30T19:57:26.888Z,192.50
2019-01-30T19:59:58.397Z,188.00
2019-01-30T20:02:29.952Z,192.50
2019-01-30T20:05:01.529Z,199.50
2019-01-30T20:07:33.152Z,201.25
2019-01-30T20:10:05.531Z,196.75
2019-01-30T20:12:37.133Z,216.75
2019-01-30T20:15:09.924Z,207.50
2019-01-30T20:17:41.274Z,214.00
2019-01-30T20:20:13.752Z,212.25
2019-01-30T20:22:45.425Z,221.50
2019-01-30T20:25:19.475Z,210.00
2019-01-30T20:27:51.138Z,210.25
2019-01-30T20:30:23.810Z,212.75
2019-01-30T20:32:55.711Z,210.75
2019-01-30T20:35:26.977Z,206.00
2019-01-30T20:37:58.813Z,206.50
2019-01-30T20:40:30.524Z,211.25
2019-01-30T20:43:01.954Z,203.75
2019-01-30T20:45:34.162Z,219.25
2019-01-30T20:48:06.033Z,219.75
2019-01-30T20:50:37.626Z,222.25
2019-01-30T20:53:09.587Z,216.50
2019-01-30T20:55:40.935Z,196.25
2019-01-30T20:58:12.311Z,214.00
2019-01-30T21:00:43.724Z,219.75
2019-01-30T21:03:16.273Z,213.25
2019-01-30T21:05:48.949Z,198.00
2019-01-30T21:08:20.615Z,211.00
2019-01-30T21:10:51.885Z,205.00
2019-01-30T21:13:23.249Z,206.50
2019-01-30T21:15:54.841Z,207.00
2019-01-30T21:18:26.352Z,183.00
2019-01-30T21:20:57.871Z,202.75
2019-01-30T21:23:29.190Z,196.50
2019-01-30T21:26:00.518Z,181.00
2019-01-30T21:28:31.832Z,190.50
2019-01-30T21:31:03.286Z,199.50
2019-01-30T21:33:34.647Z,186.75
2019-01-30T21:36:06.510Z,188.75
2019-01-30T21:38:38.156Z,176.50
2019-01-30T21:41:09.681Z,191.00
2019-01-30T21:43:40.933Z,179.50
2019-01-30T21:46:12.295Z,181.25
2019-01-30T21:48:43.851Z,179.50
2019-01-30T21:51:15.471Z,173.00
2019-01-30T21:53:47.096Z,172.25
2019-01-30T21:56:18.739Z,178.25
2019-01-30T21:58:50.306Z,186.50
2019-01-30T22:01:21.460Z,185.75
2019-01-30T22:03:52.694Z,168.75
2019-01-30T22:06:24.081Z,191.25
2019-01-30T22:08:55.331Z,190.75
2019-01-30T22:11:26.760Z,181.50
2019-01-30T22:13:58.030Z,176.75
2019-01-30T22:16:29.418Z,168.50
2019-01-30T22:19:00.895Z,160.50
2019-01-30T22:21:32.333Z,162.50
2019-01-30T22:24:05.527Z,156.25
2019-01-30T22:26:36.883Z,144.80
2019-01-30T22:29:08.562Z,168.60
2019-01-30T22:31:40.232Z,166.80
2019-01-30T22:34:13.380Z,162.60
2019-01-30T22:36:45.233Z,146.80
2019-01-30T22:39:16.844Z,157.40
2019-01-30T22:41:48.521Z,160.20
2019-01-30T22:44:21.000Z,146.20
2019-01-30T22:46:52.637Z,152.60
2019-01-30T22:49:24.049Z,151.20
2019-01-30T22:51:55.436Z,141.80
2019-01-30T22:54:26.990Z,154.00
2019-01-30T22:56:58.504Z,157.60
2019-01-30T22:59:30.079Z,130.40
2019-01-30T23:02:04.765Z,140.80
2019-01-30T23:05:15.514Z,156.20
2019-01-30T23:08:29.656Z,151.60
2019-01-30T23:12:01.960Z,154.60
2019-01-30T23:14:46.887Z,143.00
2019-01-30T23:18:01.837Z,151.00
2019-01-30T23:20:48.265Z,145.40
2019-01-30T23:23:51.379Z,138.00
2019-01-30T23:26:47.284Z,155.20
2019-01-30T23:30:02.203Z,150.40
2019-01-30T23:33:03.631Z,157.00
2019-01-30T23:36:08.232Z,141.40
2019-01-30T23:39:09.902Z,158.80
2019-01-30T23:42:18.370Z,155.20
2019-01-30T23:45:27.405Z,156.60
2019-01-30T23:48:34.004Z,154.20
2019-01-30T23:51:48.362Z,160.00
2019-01-30T23:54:54.914Z,152.20
2019-01-30T23:58:03.748Z,145.00
